createdAt,value
2023-01-13T00:00:59.624Z,64.16
2023-01-13T00:06:03.448Z,65.55
2023-01-13T00:11:06.683Z,64.92
2023-01-13T00:16:17.746Z,65.62
2023-01-13T00:21:23.711Z,65.72
2023-01-13T00:26:30.940Z,66.36
2023-01-13T00:31:34.251Z,65.52
2023-01-13T00:36:38.013Z,66.06
2023-01-13T00:41:59.375Z,65.88
2023-01-13T00:47:02.737Z,66.46
2023-01-13T00:52:06.129Z,66.47
2023-01-13T01:02:29.268Z,66.84
2023-01-13T01:07:32.351Z,67.70
2023-01-13T01:12:35.532Z,68.21
2023-01-13T01:17:39.363Z,67.55
2023-01-13T01:22:42.399Z,67.85
2023-01-13T01:27:45.441Z,69.18
2023-01-13T01:32:48.488Z,69.14
2023-01-13T01:37:51.568Z,68.22
2023-01-13T01:43:13.296Z,68.93
2023-01-13T01:48:16.444Z,69.44
2023-01-13T01:53:23.489Z,69.34
2023-01-13T01:58:32.641Z,69.37
2023-01-13T02:03:40.336Z,71.13
2023-01-13T02:08:43.546Z,70.27
2023-01-13T02:13:46.667Z,70.47
2023-01-13T02:18:52.433Z,71.09
2023-01-13T02:24:54.716Z,71.83
2023-01-13T02:30:50.015Z,71.14
2023-01-13T02:35:57.520Z,72.41
2023-01-13T02:41:34.801Z,72.76
2023-01-13T02:46:55.799Z,71.76
2023-01-13T02:52:05.866Z,72.26
2023-01-13T02:57:12.229Z,72.79
2023-01-13T03:02:20.486Z,72.87
2023-01-13T03:07:47.439Z,72.49
2023-01-13T03:13:00.361Z,72.99
2023-01-13T03:18:38.460Z,72.11
2023-01-13T03:23:51.088Z,72.67
2023-01-13T03:29:02.503Z,73.07
2023-01-13T03:34:10.462Z,73.27
2023-01-13T03:39:20.373Z,73.23
2023-01-13T03:45:02.501Z,74.04
2023-01-13T03:50:33.811Z,73.33
2023-01-13T03:55:42.230Z,73.53
2023-01-13T04:01:08.573Z,74.01
2023-01-13T04:11:45.826Z,73.01
2023-01-13T04:16:49.486Z,73.27
2023-01-13T04:21:52.585Z,73.54
2023-01-13T04:32:16.169Z,73.03
2023-01-13T04:37:19.227Z,73.75
2023-01-13T04:42:22.355Z,73.87
2023-01-13T04:47:25.513Z,72.45
2023-01-13T04:52:28.617Z,73.89
2023-01-13T04:57:33.654Z,72.88
2023-01-13T05:02:36.734Z,72.93
2023-01-13T05:18:32.934Z,72.93
2023-01-13T05:23:54.478Z,72.72
2023-01-13T05:28:57.741Z,72.63
2023-01-13T05:34:00.846Z,73.46
2023-01-13T05:39:05.607Z,72.32
2023-01-13T05:49:31.068Z,72.16
2023-01-13T05:59:52.090Z,72.02
2023-01-13T06:04:55.369Z,72.47
2023-01-13T06:09:58.494Z,72.10
2023-01-13T06:15:01.680Z,72.41
2023-01-13T06:20:09.438Z,72.49
2023-01-13T06:25:41.452Z,72.39
2023-01-13T06:30:51.686Z,72.34
2023-01-13T06:41:17.827Z,72.48
2023-01-13T06:46:21.085Z,71.21
2023-01-13T06:51:25.034Z,71.78
2023-01-13T06:56:28.407Z,71.39
2023-01-13T07:01:32.004Z,71.80
2023-01-13T07:06:35.207Z,71.86
2023-01-13T07:16:58.633Z,71.19
2023-01-13T07:27:30.790Z,71.14
2023-01-13T07:32:34.408Z,71.18
2023-01-13T07:37:39.723Z,72.07
2023-01-13T07:43:01.048Z,71.88
2023-01-13T07:48:04.297Z,72.32
2023-01-13T07:53:07.388Z,71.37
2023-01-13T07:58:11.107Z,70.95
2023-01-13T08:03:14.274Z,71.77
2023-01-13T08:08:19.993Z,72.08
2023-01-13T08:13:25.244Z,71.57
2023-01-13T08:18:28.284Z,72.46
2023-01-13T08:23:31.465Z,72.06
2023-01-13T08:28:34.777Z,71.68
2023-01-13T08:33:38.218Z,71.55
2023-01-13T08:38:42.480Z,71.41
2023-01-13T08:49:11.427Z,71.65
2023-01-13T08:54:15.521Z,70.93
2023-01-13T08:59:20.519Z,70.60
2023-01-13T09:04:26.172Z,69.83
2023-01-13T09:09:29.473Z,69.76
2023-01-13T09:19:54.773Z,69.90
2023-01-13T09:24:58.015Z,69.44
2023-01-13T09:30:01.178Z,69.25
2023-01-13T09:35:07.988Z,69.34
2023-01-13T09:40:23.012Z,68.84
2023-01-13T09:45:43.177Z,68.18
2023-01-13T09:56:14.378Z,68.37
2023-01-13T10:01:34.079Z,68.40
2023-01-13T10:12:35.051Z,68.36
2023-01-13T10:17:51.139Z,68.00
2023-01-13T10:23:29.199Z,68.33
2023-01-13T10:28:32.299Z,68.59
2023-01-13T10:33:35.544Z,68.42
2023-01-13T10:38:44.755Z,69.15
2023-01-13T10:44:12.865Z,69.05
2023-01-13T10:49:36.678Z,68.78
2023-01-13T10:54:52.615Z,68.88
2023-01-13T10:59:56.682Z,68.52
2023-01-13T11:05:11.323Z,69.39
2023-01-13T11:10:24.883Z,69.44
2023-01-13T11:15:50.865Z,69.31
2023-01-13T11:20:56.257Z,69.25
2023-01-13T11:26:22.057Z,69.49
2023-01-13T11:31:37.643Z,68.90
2023-01-13T11:37:01.976Z,68.14
2023-01-13T11:42:32.445Z,68.81
2023-01-13T11:47:36.769Z,68.52
2023-01-13T11:52:45.719Z,68.80
2023-01-13T11:58:16.264Z,68.63
2023-01-13T12:03:36.081Z,69.21
2023-01-13T12:09:00.967Z,69.23
2023-01-13T12:14:47.096Z,69.40
2023-01-13T12:19:51.537Z,69.04
2023-01-13T12:25:06.376Z,69.89
2023-01-13T12:30:34.515Z,69.41
2023-01-13T12:35:41.974Z,68.70
2023-01-13T12:41:00.442Z,68.58
2023-01-13T12:46:21.740Z,67.79
2023-01-13T12:51:40.431Z,67.51
2023-01-13T12:56:46.851Z,67.42
2023-01-13T13:02:13.168Z,66.50
2023-01-13T13:07:20.185Z,65.94
2023-01-13T13:12:50.501Z,65.28
2023-01-13T13:23:35.756Z,63.81
2023-01-13T13:34:10.232Z,63.27
2023-01-13T13:39:41.952Z,63.31
2023-01-13T13:45:07.841Z,62.12
2023-01-13T13:50:22.057Z,61.37
2023-01-13T13:55:28.055Z,61.91
2023-01-13T14:00:35.319Z,62.09
2023-01-13T14:05:38.584Z,61.80
2023-01-13T14:10:47.463Z,62.12
2023-01-13T14:21:30.107Z,62.13
2023-01-13T14:26:33.355Z,62.41
2023-01-13T14:31:38.659Z,62.52
2023-01-13T14:36:48.200Z,63.35
2023-01-13T14:41:51.447Z,63.20
2023-01-13T14:47:17.660Z,63.09
2023-01-13T14:52:23.794Z,63.70
2023-01-13T14:57:36.293Z,63.31
2023-01-13T15:02:42.189Z,63.46
2023-01-13T15:07:59.566Z,63.28
2023-01-13T15:13:05.632Z,63.51
2023-01-13T15:18:14.808Z,63.49
2023-01-13T15:23:19.470Z,64.57
2023-01-13T15:28:25.337Z,64.18
2023-01-13T15:33:28.478Z,63.79
2023-01-13T15:38:31.466Z,63.68
2023-01-13T15:43:52.716Z,64.29
2023-01-13T15:48:57.934Z,64.47
2023-01-13T15:59:26.597Z,64.41
2023-01-13T16:04:29.637Z,64.19
2023-01-13T16:09:32.654Z,63.80
2023-01-13T16:14:35.980Z,64.68
2023-01-13T16:19:39.056Z,64.14
2023-01-13T16:24:42.651Z,64.34
2023-01-13T16:29:46.204Z,64.88
2023-01-13T16:40:07.576Z,64.75
2023-01-13T16:45:11.068Z,64.43
2023-01-13T16:50:40.083Z,63.82
2023-01-13T16:55:43.961Z,64.01
2023-01-13T17:00:48.112Z,64.30
2023-01-13T17:05:51.290Z,64.53
2023-01-13T17:10:54.378Z,64.76
2023-01-13T17:15:57.397Z,64.25
2023-01-13T17:21:01.716Z,63.88
2023-01-13T17:26:05.088Z,64.94
2023-01-13T17:31:10.982Z,64.40
2023-01-13T17:36:14.070Z,64.30
2023-01-13T17:41:17.147Z,64.59
2023-01-13T17:46:21.030Z,64.50
2023-01-13T17:51:25.449Z,64.48
2023-01-13T17:56:28.607Z,64.07
2023-01-13T18:01:33.489Z,64.66
2023-01-13T18:06:36.611Z,64.34
2023-01-13T18:11:39.701Z,64.32
2023-01-13T18:16:46.636Z,63.30
2023-01-13T18:22:10.804Z,63.39
2023-01-13T18:27:24.659Z,63.28
2023-01-13T18:33:38.491Z,64.40
2023-01-13T18:38:25.207Z,64.24
2023-01-13T18:43:28.268Z,63.52
2023-01-13T18:48:31.690Z,64.23
2023-01-13T18:53:34.907Z,64.11
2023-01-13T18:58:52.072Z,64.41
2023-01-13T19:03:56.614Z,63.39
2023-01-13T19:09:01.995Z,63.69
2023-01-13T19:14:05.036Z,64.48
2023-01-13T19:19:08.707Z,63.33
2023-01-13T19:24:11.730Z,64.78
2023-01-13T19:29:15.401Z,63.80
2023-01-13T19:34:18.607Z,64.02
2023-01-13T19:39:22.583Z,63.82
2023-01-13T19:44:44.109Z,64.06
2023-01-13T19:49:47.267Z,64.75
2023-01-13T19:54:50.585Z,64.61
2023-01-13T19:59:53.605Z,63.49
2023-01-13T20:04:58.491Z,64.29
2023-01-13T20:10:02.054Z,63.00
2023-01-13T20:15:07.389Z,63.49
2023-01-13T20:20:11.142Z,63.23
2023-01-13T20:25:17.167Z,62.22
2023-01-13T20:30:20.408Z,62.33
2023-01-13T20:40:59.617Z,61.60
2023-01-13T20:46:19.390Z,61.74
2023-01-13T20:51:26.951Z,61.86
2023-01-13T20:56:30.122Z,61.17
2023-01-13T21:01:33.964Z,61.06
2023-01-13T21:06:37.205Z,62.03
2023-01-13T21:11:58.892Z,61.70
2023-01-13T21:17:02.444Z,61.56
2023-01-13T21:22:05.605Z,61.38
2023-01-13T21:27:09.948Z,61.62
2023-01-13T21:32:13.356Z,61.29
2023-01-13T21:42:57.306Z,61.33
2023-01-13T21:48:00.407Z,61.52
2023-01-13T21:53:03.598Z,61.17
2023-01-13T21:58:12.701Z,61.05
2023-01-13T22:03:15.739Z,61.22
2023-01-13T22:08:18.766Z,60.60
2023-01-13T22:13:40.553Z,60.89
2023-01-13T22:24:03.201Z,60.75
2023-01-13T22:29:06.431Z,59.49
2023-01-13T22:34:12.751Z,59.72
2023-01-13T22:39:15.846Z,59.68
2023-01-13T22:44:21.114Z,59.39
2023-01-13T22:49:24.235Z,59.37
2023-01-13T22:54:27.293Z,59.55
2023-01-13T22:59:31.861Z,59.20
2023-01-13T23:04:35.085Z,59.76
2023-01-13T23:09:38.253Z,59.87
2023-01-13T23:14:41.349Z,59.89
2023-01-13T23:19:44.397Z,60.03
2023-01-13T23:24:47.459Z,59.08
2023-01-13T23:29:50.697Z,59.01
2023-01-13T23:34:53.843Z,59.49
2023-01-13T23:39:56.896Z,58.84
2023-01-13T23:45:26.503Z,58.93
2023-01-13T23:50:29.609Z,58.88
2023-01-13T23:55:32.622Z,58.63
